Portada
METAR-TAF:

METAR-TAF

Aeroports :

Farnborough, Anglaterra

latitud: 51-17N, longitud: 000-46W, altitud: 65 m

Observació

L'informe es va fer fa 43 minuts, a les 11:20 UTC
Vent 2 kt amb direcció variable
Temperatura 23°C
Humitat 47%
Pressió 1019 hPa
Visibilitat 10 km o més
Núvols disperses a una alçada de 4200 ft

METAR: EGLF 161120Z VRB02KT 9999 SCT042 23/11 Q1019

Hora: 13:03 (12:03 UTC)

Pronòstic

L'informe es va fer fa 1 hora i 3 minuts, a les 11:00 UTC
Pronòstic vàlid del 16 a les 12 UTC al 16 a les 21 UTC
Vent 6 kt del Oest
Visibilitat 10 km o més
sense núvols per sota de 1500 mi sense presència de cumulonimbus.

TAF: EGLF 161100Z 1612/1621 27006KT CAVOK

Observacions i pronòstics meteorològics de més de 4000 aeroports (METAR i TAF).

Les estacions disponibles són els punts grocs i vermells al mapa.

Posi el ratolí al punt desitjat per veure el nom de l'estació.

Feu clic per veure les observacions i els pronòstics meteorològics.

Per canviar el mapa: feu clic els botons verds amb una creu de color negre per apropar; al botó verd amb un guió per allunyar la imatge; o en les fletxes verdes per a mapes adjacents.


METAR-TAF: